createdAt,value
2023-01-15T00:16:16.677Z,97542.28
2023-01-15T00:18:45.556Z,97536.72
2023-01-15T00:21:14.585Z,97557.53
2023-01-15T00:24:00.525Z,97554.00
2023-01-15T00:26:48.954Z,97539.41
2023-01-15T00:29:17.624Z,97546.56
2023-01-15T00:31:54.929Z,97542.28
2023-01-15T00:34:23.306Z,97534.00
2023-01-15T00:36:52.358Z,97549.50
2023-01-15T00:39:20.514Z,97533.41
2023-01-15T00:41:49.310Z,97542.91
2023-01-15T00:44:20.356Z,97544.22
2023-01-15T00:46:52.952Z,97547.19
2023-01-15T00:49:21.343Z,97552.47
2023-01-15T00:51:58.813Z,97550.44
2023-01-15T00:54:27.180Z,97545.16
2023-01-15T00:57:00.212Z,97539.88
2023-01-15T00:59:30.033Z,97542.97
2023-01-15T01:02:00.875Z,97544.75
2023-01-15T01:04:31.244Z,97558.78
2023-01-15T01:07:00.059Z,97551.56
2023-01-15T01:09:28.528Z,97563.22
2023-01-15T01:11:56.790Z,97574.22
2023-01-15T01:14:25.600Z,97574.72
2023-01-15T01:16:56.271Z,97574.44
2023-01-15T01:19:28.427Z,97571.94
2023-01-15T01:21:58.106Z,97580.59
2023-01-15T01:24:26.951Z,97579.41
2023-01-15T01:26:56.603Z,97582.41
2023-01-15T01:29:26.224Z,97588.41
2023-01-15T01:31:55.023Z,97580.16
2023-01-15T01:34:23.394Z,97582.53
2023-01-15T01:36:53.462Z,97594.19
2023-01-15T01:39:21.903Z,97594.31
2023-01-15T01:41:50.355Z,97599.13
2023-01-15T01:44:56.206Z,97600.25
2023-01-15T01:47:28.215Z,97615.72
2023-01-15T01:50:06.044Z,97615.69
2023-01-15T01:52:46.287Z,97615.47
2023-01-15T01:55:21.269Z,97618.47
2023-01-15T01:57:56.141Z,97616.78
2023-01-15T02:00:25.723Z,97623.38
2023-01-15T02:02:56.207Z,97627.19
2023-01-15T02:05:31.401Z,97636.69
2023-01-15T02:08:02.845Z,97623.84
2023-01-15T02:10:33.689Z,97632.22
2023-01-15T02:13:08.752Z,97627.56
2023-01-15T02:15:42.498Z,97635.44
2023-01-15T02:18:18.463Z,97635.28
2023-01-15T02:20:52.000Z,97643.91
2023-01-15T02:23:40.244Z,97628.06
2023-01-15T02:26:32.055Z,97622.06
2023-01-15T02:29:04.367Z,97631.59
2023-01-15T02:31:40.676Z,97629.19
2023-01-15T02:34:18.665Z,97616.81
2023-01-15T02:36:52.304Z,97618.00
2023-01-15T02:39:24.661Z,97615.59
2023-01-15T02:42:02.721Z,97603.72
2023-01-15T02:44:43.446Z,97600.50
2023-01-15T02:47:13.297Z,97595.66
2023-01-15T02:49:44.009Z,97614.66
2023-01-15T02:52:29.089Z,97604.34
2023-01-15T02:55:01.483Z,97597.41
2023-01-15T02:57:34.963Z,97605.31
2023-01-15T03:00:08.870Z,97615.44
2023-01-15T03:02:43.785Z,97618.28
2023-01-15T03:05:19.629Z,97626.28
2023-01-15T03:07:51.501Z,97619.47
2023-01-15T03:10:21.229Z,97634.63
2023-01-15T03:13:07.379Z,97630.53
2023-01-15T03:16:11.851Z,97633.28
2023-01-15T03:18:47.286Z,97639.69
2023-01-15T03:21:23.382Z,97647.56
2023-01-15T03:23:56.215Z,97645.72
2023-01-15T03:26:24.633Z,97631.72
2023-01-15T03:28:53.823Z,97627.13
2023-01-15T03:31:26.044Z,97640.25
2023-01-15T03:33:55.792Z,97640.19
2023-01-15T03:36:24.765Z,97635.34
2023-01-15T03:38:53.841Z,97650.06
2023-01-15T03:41:28.021Z,97639.03
2023-01-15T03:44:09.817Z,97635.84
2023-01-15T03:46:53.240Z,97639.75
2023-01-15T03:49:28.827Z,97647.63
2023-01-15T03:52:05.580Z,97644.38
2023-01-15T03:54:46.084Z,97630.31
2023-01-15T03:57:20.401Z,97642.78
2023-01-15T03:59:55.728Z,97658.56
2023-01-15T04:02:32.133Z,97648.88
2023-01-15T04:05:03.190Z,97643.22
2023-01-15T04:07:33.358Z,97654.34
2023-01-15T04:10:01.910Z,97651.72
2023-01-15T04:12:30.632Z,97659.84
2023-01-15T04:14:59.998Z,97650.34
2023-01-15T04:17:34.209Z,97668.88
2023-01-15T04:20:03.689Z,97664.63
2023-01-15T04:22:32.741Z,97659.72
2023-01-15T04:25:01.531Z,97658.66
2023-01-15T04:27:30.570Z,97670.53
2023-01-15T04:30:00.438Z,97683.66
2023-01-15T04:32:30.436Z,97666.44
2023-01-15T04:34:59.059Z,97658.41
2023-01-15T04:37:27.546Z,97670.31
2023-01-15T04:39:58.512Z,97682.19
2023-01-15T04:42:49.610Z,97686.28
2023-01-15T04:45:19.179Z,97692.69
2023-01-15T04:47:49.854Z,97680.28
2023-01-15T04:50:19.657Z,97691.44
2023-01-15T04:52:48.543Z,97689.28
2023-01-15T04:55:18.791Z,97692.50
2023-01-15T04:57:47.828Z,97694.56
2023-01-15T05:00:21.039Z,97686.09
2023-01-15T05:02:55.639Z,97699.31
2023-01-15T05:05:25.428Z,97688.66
2023-01-15T05:07:54.107Z,97691.22
2023-01-15T05:10:22.771Z,97693.63
2023-01-15T05:12:51.789Z,97704.06
2023-01-15T05:15:20.457Z,97707.19
2023-01-15T05:17:52.971Z,97709.19
2023-01-15T05:20:21.608Z,97715.66
2023-01-15T05:22:51.211Z,97712.59
2023-01-15T05:25:19.870Z,97722.06
2023-01-15T05:27:51.004Z,97715.97
2023-01-15T05:30:20.441Z,97705.03
2023-01-15T05:32:48.803Z,97718.44
2023-01-15T05:35:20.855Z,97713.41
2023-01-15T05:37:50.739Z,97714.66
2023-01-15T05:40:19.529Z,97730.38
2023-01-15T05:42:48.214Z,97740.78
2023-01-15T05:45:18.369Z,97738.16
2023-01-15T05:47:47.410Z,97738.69
2023-01-15T05:50:15.914Z,97748.75
2023-01-15T05:52:46.315Z,97757.81
2023-01-15T05:55:15.486Z,97746.75
2023-01-15T05:57:43.957Z,97748.97
2023-01-15T06:00:16.902Z,97764.28
2023-01-15T06:02:50.628Z,97762.72
2023-01-15T06:05:20.930Z,97758.19
2023-01-15T06:07:54.483Z,97763.00
2023-01-15T06:10:26.269Z,97769.19
2023-01-15T06:12:54.648Z,97758.59
2023-01-15T06:15:23.495Z,97771.25
2023-01-15T06:17:55.659Z,97764.69
2023-01-15T06:20:24.152Z,97770.31
2023-01-15T06:22:54.167Z,97774.72
2023-01-15T06:25:24.178Z,97777.44
2023-01-15T06:27:53.017Z,97773.78
2023-01-15T06:30:23.562Z,97755.03
2023-01-15T06:32:52.104Z,97755.63
2023-01-15T06:35:21.190Z,97760.13
2023-01-15T06:37:52.512Z,97748.97
2023-01-15T06:40:30.158Z,97752.91
2023-01-15T06:43:18.071Z,97753.84
2023-01-15T06:46:04.818Z,97766.09
2023-01-15T06:48:35.018Z,97766.75
2023-01-15T06:51:05.257Z,97764.31
2023-01-15T06:53:33.914Z,97772.19
2023-01-15T06:56:05.292Z,97780.03
2023-01-15T06:58:37.095Z,97786.91
2023-01-15T07:01:11.113Z,97791.69
2023-01-15T07:03:39.998Z,97787.38
2023-01-15T07:06:12.235Z,97789.69
2023-01-15T07:08:41.549Z,97792.13
2023-01-15T07:11:14.614Z,97785.19
2023-01-15T07:13:46.723Z,97784.66
2023-01-15T07:16:29.149Z,97778.16
2023-01-15T07:18:58.090Z,97781.38
2023-01-15T07:21:26.595Z,97784.94
2023-01-15T07:23:56.722Z,97783.88
2023-01-15T07:26:26.698Z,97786.50
2023-01-15T07:28:55.282Z,97795.50
2023-01-15T07:31:23.765Z,97795.59
2023-01-15T07:33:51.990Z,97792.22
2023-01-15T07:36:22.876Z,97803.38
2023-01-15T07:38:52.039Z,97793.63
2023-01-15T07:41:38.024Z,97799.25
2023-01-15T07:44:24.607Z,97815.75
2023-01-15T07:47:10.163Z,97802.44
2023-01-15T07:49:48.447Z,97801.59
2023-01-15T07:52:19.330Z,97815.81
2023-01-15T07:54:51.879Z,97817.69
2023-01-15T07:57:23.760Z,97812.44
2023-01-15T07:59:54.699Z,97818.69
2023-01-15T08:02:23.298Z,97826.84
2023-01-15T08:04:52.208Z,97828.38
2023-01-15T08:07:20.944Z,97830.41
2023-01-15T08:09:49.262Z,97842.56
2023-01-15T08:12:34.520Z,97852.84
2023-01-15T08:15:17.233Z,97844.78
2023-01-15T08:17:50.161Z,97859.03
2023-01-15T08:20:20.755Z,97863.13
2023-01-15T08:22:49.784Z,97862.44
2023-01-15T08:25:20.366Z,97871.72
2023-01-15T08:27:52.240Z,97882.19
2023-01-15T08:30:27.394Z,97881.06
2023-01-15T08:33:03.458Z,97877.91
2023-01-15T08:35:34.472Z,97882.72
2023-01-15T08:38:06.457Z,97899.09
2023-01-15T08:40:36.588Z,97905.28
2023-01-15T08:43:05.881Z,97901.06
2023-01-15T08:45:37.409Z,97898.09
2023-01-15T08:48:07.395Z,97908.56
2023-01-15T08:50:37.117Z,97913.31
2023-01-15T08:53:05.587Z,97902.66
2023-01-15T08:55:34.139Z,97901.06
2023-01-15T08:58:02.649Z,97932.41
2023-01-15T09:00:31.488Z,97924.53
2023-01-15T09:03:01.418Z,97919.22
2023-01-15T09:05:31.046Z,97915.22
2023-01-15T09:08:01.172Z,97917.19
2023-01-15T09:10:30.304Z,97922.94
2023-01-15T09:13:00.691Z,97916.03
2023-01-15T09:15:29.100Z,97922.28
2023-01-15T09:17:57.959Z,97910.56
2023-01-15T09:20:28.068Z,97915.38
2023-01-15T09:22:56.637Z,97928.78
2023-01-15T09:25:25.435Z,97914.59
2023-01-15T09:27:57.595Z,97908.72
2023-01-15T09:30:26.119Z,97909.41
2023-01-15T09:32:56.600Z,97921.31
2023-01-15T09:35:25.092Z,97925.16
2023-01-15T09:37:56.716Z,97926.28
2023-01-15T09:40:42.609Z,97937.94
2023-01-15T09:43:25.890Z,97940.31
2023-01-15T09:46:02.324Z,97936.06
2023-01-15T09:48:45.231Z,97916.22
2023-01-15T09:51:21.235Z,97922.94
2023-01-15T09:54:05.520Z,97938.72
2023-01-15T09:56:38.361Z,97933.69
2023-01-15T09:59:15.148Z,97929.16
2023-01-15T10:01:45.493Z,97930.97
2023-01-15T10:04:33.854Z,97932.75
2023-01-15T10:07:15.374Z,97932.88
2023-01-15T10:09:46.733Z,97913.97
2023-01-15T10:12:36.859Z,97917.22
2023-01-15T10:15:16.551Z,97935.44
2023-01-15T10:17:48.514Z,97941.41
2023-01-15T10:20:25.992Z,97937.75
2023-01-15T10:23:20.251Z,97932.63
2023-01-15T10:25:52.241Z,97928.50
2023-01-15T10:28:25.341Z,97941.69
2023-01-15T10:30:57.025Z,97943.75
2023-01-15T10:33:54.901Z,97938.81
2023-01-15T10:36:30.519Z,97948.66
2023-01-15T10:39:05.648Z,97939.00
2023-01-15T10:41:54.136Z,97936.09
2023-01-15T10:44:31.658Z,97938.44
2023-01-15T10:47:22.420Z,97937.03
2023-01-15T10:49:52.276Z,97926.88
2023-01-15T10:52:32.413Z,97921.63
2023-01-15T10:55:09.855Z,97913.94
2023-01-15T10:57:56.502Z,97926.13
2023-01-15T11:00:30.376Z,97920.88
2023-01-15T11:03:05.062Z,97919.84
2023-01-15T11:05:35.307Z,97940.50
2023-01-15T11:08:45.153Z,97916.31
2023-01-15T11:10:58.569Z,97903.50
2023-01-15T11:13:46.331Z,97910.06
2023-01-15T11:16:40.073Z,97907.66
2023-01-15T11:19:41.283Z,97917.59
2023-01-15T11:22:16.248Z,97918.53
2023-01-15T11:24:51.842Z,97922.47
2023-01-15T11:27:23.076Z,97917.56
2023-01-15T11:29:57.590Z,97923.84
2023-01-15T11:32:31.205Z,97920.84
2023-01-15T11:35:01.080Z,97906.53
2023-01-15T11:37:30.711Z,97912.13
2023-01-15T11:40:06.350Z,97922.94
2023-01-15T11:42:52.145Z,97917.38
2023-01-15T11:45:41.283Z,97927.66
2023-01-15T11:48:35.480Z,97912.47
2023-01-15T11:51:08.417Z,97923.59
2023-01-15T11:53:43.091Z,97930.38
2023-01-15T11:56:17.077Z,97943.19
2023-01-15T11:58:50.107Z,97924.97
2023-01-15T12:01:28.499Z,97920.50
2023-01-15T12:03:59.132Z,97927.75
2023-01-15T12:06:32.393Z,97923.09
2023-01-15T12:09:07.555Z,97912.66
2023-01-15T12:12:01.414Z,97906.31
2023-01-15T12:14:53.150Z,97906.78
2023-01-15T12:17:44.289Z,97913.03
2023-01-15T12:20:26.347Z,97905.06
2023-01-15T12:23:31.511Z,97909.53
2023-01-15T12:26:05.924Z,97888.53
2023-01-15T12:28:39.453Z,97885.75
2023-01-15T12:31:13.277Z,97877.50
2023-01-15T12:33:50.451Z,97879.50
2023-01-15T12:36:23.997Z,97873.31
2023-01-15T12:38:57.307Z,97871.78
2023-01-15T12:41:53.113Z,97869.97
2023-01-15T12:44:45.922Z,97882.72
2023-01-15T12:47:21.652Z,97883.28
2023-01-15T12:50:01.995Z,97866.78
2023-01-15T12:52:38.383Z,97865.19
2023-01-15T12:55:14.980Z,97873.63
2023-01-15T12:57:52.203Z,97867.50
2023-01-15T13:00:30.973Z,97857.06
2023-01-15T13:03:12.085Z,97877.94
2023-01-15T13:05:53.082Z,97873.91
2023-01-15T13:08:27.053Z,97884.09
2023-01-15T13:10:55.520Z,97880.41
2023-01-15T13:13:26.321Z,97852.88
2023-01-15T13:16:06.275Z,97873.69
2023-01-15T13:18:47.632Z,97875.41
2023-01-15T13:21:20.508Z,97888.41
2023-01-15T13:24:18.796Z,97880.63
2023-01-15T13:26:59.897Z,97862.13
2023-01-15T13:29:41.931Z,97873.81
2023-01-15T13:32:18.637Z,97884.56
2023-01-15T13:34:50.713Z,97889.50
2023-01-15T13:37:27.404Z,97890.63
2023-01-15T13:40:01.912Z,97898.84
2023-01-15T13:42:34.525Z,97887.38
2023-01-15T13:45:12.449Z,97874.25
2023-01-15T13:47:46.077Z,97920.19
2023-01-15T13:50:22.114Z,97893.06
2023-01-15T13:53:11.367Z,97913.72
2023-01-15T13:55:50.233Z,97919.16
2023-01-15T13:58:21.974Z,97918.75
2023-01-15T14:00:50.433Z,97916.31
2023-01-15T14:03:28.323Z,97931.47
2023-01-15T14:05:59.002Z,97925.72
2023-01-15T14:08:43.834Z,97948.94
2023-01-15T14:11:37.433Z,97934.53
2023-01-15T14:15:05.036Z,97944.00
2023-01-15T14:18:05.200Z,97920.41
2023-01-15T14:20:51.485Z,97953.66
2023-01-15T14:23:56.960Z,97923.59
2023-01-15T14:26:33.184Z,97932.94
2023-01-15T14:29:16.636Z,97930.81
2023-01-15T14:32:01.898Z,97937.69
2023-01-15T14:34:33.334Z,97945.03
2023-01-15T14:37:07.943Z,97947.34
2023-01-15T14:39:49.973Z,97938.09
2023-01-15T14:42:43.547Z,97937.47
2023-01-15T14:45:21.494Z,97940.41
2023-01-15T14:48:20.939Z,97931.56
2023-01-15T14:50:59.049Z,97948.22
2023-01-15T14:53:38.882Z,97958.63
2023-01-15T14:59:20.165Z,97977.56
2023-01-15T15:01:56.501Z,97959.84
2023-01-15T15:04:35.221Z,97958.06
2023-01-15T15:07:13.099Z,97969.53
2023-01-15T15:09:45.155Z,97956.78
2023-01-15T15:12:27.217Z,97965.22
2023-01-15T15:15:03.171Z,97962.59
2023-01-15T15:17:42.833Z,97955.03
2023-01-15T15:20:39.757Z,97966.63
2023-01-15T15:23:14.847Z,97969.97
2023-01-15T15:25:44.020Z,97961.53
2023-01-15T15:28:18.210Z,97966.63
2023-01-15T15:30:49.776Z,97967.88
2023-01-15T15:33:23.428Z,97971.44
2023-01-15T15:35:55.898Z,97973.44
2023-01-15T15:38:26.738Z,97966.91
2023-01-15T15:41:00.554Z,97962.72
2023-01-15T15:44:03.004Z,97969.75
2023-01-15T15:46:51.966Z,97985.75
2023-01-15T15:49:21.675Z,97951.69
2023-01-15T15:51:51.532Z,97979.56
2023-01-15T15:54:21.836Z,97973.97
2023-01-15T15:56:55.509Z,97966.75
2023-01-15T15:59:45.160Z,97963.13
2023-01-15T16:02:23.262Z,97966.50
2023-01-15T16:04:54.509Z,97959.84
2023-01-15T16:07:28.478Z,97961.03
2023-01-15T16:10:02.732Z,97950.72
2023-01-15T16:12:35.659Z,97949.84
2023-01-15T16:15:07.357Z,97949.66
2023-01-15T16:17:47.806Z,97959.09
2023-01-15T16:20:21.860Z,97958.88
2023-01-15T16:22:56.298Z,97967.66
2023-01-15T16:25:31.075Z,97960.41
2023-01-15T16:28:02.270Z,97958.50
2023-01-15T16:30:36.011Z,97981.97
2023-01-15T16:33:09.151Z,97997.09
2023-01-15T16:35:42.065Z,97972.59
2023-01-15T16:38:22.389Z,97969.03
2023-01-15T16:40:51.068Z,97958.56
2023-01-15T16:43:25.114Z,97983.59
2023-01-15T16:46:04.949Z,97965.91
2023-01-15T16:48:38.610Z,97975.66
2023-01-15T16:51:45.333Z,97949.50
2023-01-15T16:55:01.396Z,97956.88
2023-01-15T16:57:32.532Z,97973.72
2023-01-15T17:00:07.884Z,97949.31
2023-01-15T17:05:28.753Z,97976.94
2023-01-15T17:07:58.071Z,97951.09
2023-01-15T17:10:31.965Z,97945.28
2023-01-15T17:13:01.522Z,97951.09
2023-01-15T17:15:41.685Z,97961.50
2023-01-15T17:18:47.616Z,97963.69
2023-01-15T17:21:18.722Z,97975.31
2023-01-15T17:23:48.256Z,97953.03
2023-01-15T17:26:20.698Z,97966.28
2023-01-15T17:28:50.775Z,97952.22
2023-01-15T17:31:25.927Z,97969.13
2023-01-15T17:33:56.409Z,97961.44
2023-01-15T17:36:25.134Z,97961.25
2023-01-15T17:38:54.028Z,97971.00
2023-01-15T17:41:23.989Z,97973.25
2023-01-15T17:43:52.570Z,97972.16
2023-01-15T17:46:22.387Z,97969.81
2023-01-15T17:48:52.646Z,97963.41
2023-01-15T17:51:26.471Z,97967.28
2023-01-15T17:53:56.496Z,97978.94
2023-01-15T17:56:45.723Z,97970.03
2023-01-15T17:59:31.713Z,97959.41
2023-01-15T18:02:17.466Z,97945.44
2023-01-15T18:05:10.842Z,97960.38
2023-01-15T18:07:44.195Z,97945.44
2023-01-15T18:10:19.160Z,97966.81
2023-01-15T18:12:47.868Z,97943.84
2023-01-15T18:15:19.732Z,97951.81
2023-01-15T18:17:51.541Z,97949.00
2023-01-15T18:20:19.886Z,97965.13
2023-01-15T18:22:49.808Z,97960.38
2023-01-15T18:25:18.610Z,97951.56
2023-01-15T18:27:48.047Z,97956.97
2023-01-15T18:30:17.952Z,97966.59
2023-01-15T18:32:46.701Z,97962.56
2023-01-15T18:35:15.290Z,97971.59
2023-01-15T18:37:43.883Z,97972.78
2023-01-15T18:40:15.834Z,97962.94
2023-01-15T18:43:01.631Z,97966.41
2023-01-15T18:45:48.853Z,97976.09
2023-01-15T18:48:18.278Z,97978.13
2023-01-15T18:50:48.874Z,97960.22
2023-01-15T18:53:20.736Z,97960.69
2023-01-15T18:55:51.008Z,97982.66
2023-01-15T18:58:19.840Z,97983.78
2023-01-15T19:00:49.325Z,97983.22
2023-01-15T19:03:18.136Z,97988.44
2023-01-15T19:05:46.229Z,97998.56
2023-01-15T19:08:15.856Z,97994.91
2023-01-15T19:10:44.450Z,98003.31
2023-01-15T19:13:18.621Z,97998.28
2023-01-15T19:16:04.578Z,98002.69
2023-01-15T19:18:53.515Z,97983.41
2023-01-15T19:21:29.788Z,97974.34
2023-01-15T19:23:59.103Z,97975.81
2023-01-15T19:26:34.379Z,97981.34
2023-01-15T19:29:06.555Z,97982.09
2023-01-15T19:31:39.352Z,97982.47
2023-01-15T19:34:32.771Z,97983.97
2023-01-15T19:37:01.050Z,97983.41
2023-01-15T19:39:30.080Z,97984.19
2023-01-15T19:42:16.327Z,97984.91
2023-01-15T19:45:03.934Z,97983.41
2023-01-15T19:47:54.227Z,97984.25
2023-01-15T19:50:26.828Z,97984.28
2023-01-15T19:52:56.300Z,97989.03
2023-01-15T19:55:26.493Z,97980.88
2023-01-15T19:58:02.541Z,97979.09
2023-01-15T20:00:36.777Z,97974.03
2023-01-15T20:03:06.252Z,97957.81
2023-01-15T20:05:35.123Z,97956.44
2023-01-15T20:08:09.936Z,97958.66
2023-01-15T20:10:39.791Z,97951.84
2023-01-15T20:13:28.921Z,97953.25
2023-01-15T20:16:01.661Z,97941.41
2023-01-15T20:18:38.739Z,97940.97
2023-01-15T20:21:09.065Z,97936.84
2023-01-15T20:23:37.730Z,97936.38
2023-01-15T20:26:14.907Z,97937.38
2023-01-15T20:28:46.119Z,97928.94
2023-01-15T20:31:20.577Z,97935.34
2023-01-15T20:33:53.275Z,97925.03
2023-01-15T20:36:21.712Z,97920.72
2023-01-15T20:38:50.285Z,97919.31
2023-01-15T20:41:35.855Z,97927.72
2023-01-15T20:44:21.404Z,97915.38
2023-01-15T20:46:51.739Z,97901.78
2023-01-15T20:49:25.295Z,97911.34
2023-01-15T20:51:54.781Z,97909.00
2023-01-15T20:54:26.636Z,97899.72
2023-01-15T20:56:55.074Z,97899.63
2023-01-15T20:59:23.823Z,97887.09
2023-01-15T21:02:08.920Z,97878.19
2023-01-15T21:04:37.122Z,97877.34
2023-01-15T21:07:09.983Z,97865.25
2023-01-15T21:09:43.010Z,97868.34
2023-01-15T21:12:11.317Z,97867.41
2023-01-15T21:14:40.008Z,97858.72
2023-01-15T21:17:11.753Z,97859.56
2023-01-15T21:19:40.330Z,97847.16
2023-01-15T21:22:08.673Z,97854.78
2023-01-15T21:24:37.135Z,97841.25
2023-01-15T21:27:05.362Z,97832.16
2023-01-15T21:29:33.705Z,97837.69
2023-01-15T21:32:02.510Z,97830.06
2023-01-15T21:34:32.743Z,97835.53
2023-01-15T21:37:01.265Z,97829.66
2023-01-15T21:39:31.441Z,97830.66
2023-01-15T21:42:17.265Z,97822.78
2023-01-15T21:44:46.104Z,97826.91
2023-01-15T21:47:16.544Z,97820.41
2023-01-15T21:49:47.282Z,97818.31
2023-01-15T21:52:17.383Z,97817.84
2023-01-15T21:54:53.845Z,97820.00
2023-01-15T21:57:22.634Z,97811.91
2023-01-15T21:59:51.390Z,97811.03
2023-01-15T22:02:22.092Z,97817.09
2023-01-15T22:04:52.289Z,97799.00
2023-01-15T22:07:20.763Z,97797.44
2023-01-15T22:09:49.164Z,97802.03
2023-01-15T22:12:20.624Z,97800.78
2023-01-15T22:14:53.460Z,97797.00
2023-01-15T22:17:24.338Z,97786.25
2023-01-15T22:19:54.462Z,97778.19
2023-01-15T22:22:23.230Z,97780.00
2023-01-15T22:24:52.515Z,97770.91
2023-01-15T22:27:23.520Z,97762.53
2023-01-15T22:29:51.878Z,97760.41
2023-01-15T22:32:22.116Z,97749.16
2023-01-15T22:34:51.310Z,97752.53
2023-01-15T22:37:21.097Z,97737.94
2023-01-15T22:39:50.303Z,97736.63
2023-01-15T22:42:31.337Z,97742.28
2023-01-15T22:45:00.985Z,97737.78
2023-01-15T22:47:30.215Z,97729.81
2023-01-15T22:49:58.592Z,97719.22
2023-01-15T22:52:28.578Z,97713.97
2023-01-15T22:54:57.274Z,97725.31
2023-01-15T22:57:25.735Z,97711.50
2023-01-15T23:07:01.943Z,97696.88
2023-01-15T23:19:10.066Z,97681.97
2023-01-15T23:21:40.936Z,97684.16
2023-01-15T23:24:10.125Z,97674.03
2023-01-15T23:26:40.580Z,97668.03
2023-01-15T23:29:09.408Z,97660.84
2023-01-15T23:31:37.801Z,97659.94
2023-01-15T23:34:05.925Z,97669.94
2023-01-15T23:36:34.850Z,97666.09
2023-01-15T23:47:41.582Z,97657.06
2023-01-15T23:50:13.042Z,97655.41
2023-01-15T23:52:46.815Z,97649.41
2023-01-15T23:55:14.990Z,97647.94
2023-01-15T23:57:43.943Z,97634.72
